createdAt,value
2023-01-27T00:02:02.737Z,98855.10
2023-01-27T00:04:32.747Z,98858.96
2023-01-27T00:06:59.451Z,98855.27
2023-01-27T00:09:33.099Z,98861.85
2023-01-27T00:12:32.393Z,98856.09
2023-01-27T00:15:03.429Z,98859.73
2023-01-27T00:17:30.787Z,98862.09
2023-01-27T00:19:57.650Z,98859.33
2023-01-27T00:22:44.661Z,98862.31
2023-01-27T00:25:11.687Z,98861.25
2023-01-27T00:27:38.496Z,98857.52
2023-01-27T00:30:06.212Z,98854.77
2023-01-27T00:32:52.920Z,98854.48
2023-01-27T00:35:19.688Z,98849.48
2023-01-27T00:37:46.346Z,98850.77
2023-01-27T00:40:15.119Z,98846.80
2023-01-27T00:42:42.827Z,98844.23
2023-01-27T00:45:28.693Z,98840.03
2023-01-27T00:47:55.900Z,98841.27
2023-01-27T00:50:23.220Z,98844.09
2023-01-27T00:52:51.733Z,98845.39
2023-01-27T00:55:19.570Z,98848.66
2023-01-27T00:57:46.202Z,98851.57
2023-01-27T01:00:17.460Z,98851.40
2023-01-27T01:02:44.396Z,98850.29
2023-01-27T01:05:11.256Z,98851.77
2023-01-27T01:07:38.495Z,98853.41
2023-01-27T01:10:13.529Z,98853.37
2023-01-27T01:12:40.803Z,98849.41
2023-01-27T01:15:07.939Z,98849.52
2023-01-27T01:17:34.795Z,98847.20
2023-01-27T01:20:01.500Z,98848.65
2023-01-27T01:22:28.452Z,98844.60
2023-01-27T01:24:55.379Z,98839.48
2023-01-27T01:27:22.241Z,98840.45
2023-01-27T01:39:06.146Z,98836.58
2023-01-27T01:42:22.640Z,98839.39
2023-01-27T02:57:06.963Z,98813.23
2023-01-27T03:00:51.895Z,98810.26
2023-01-27T03:12:36.299Z,98811.41
2023-01-27T03:15:46.562Z,98809.13
2023-01-27T03:49:33.261Z,98798.48
2023-01-27T03:52:24.975Z,98798.08
2023-01-27T04:40:02.498Z,98781.95
2023-01-27T05:09:08.178Z,98779.21
2023-01-27T05:20:33.605Z,98777.39
2023-01-27T05:23:34.832Z,98777.27
2023-01-27T05:48:29.524Z,98771.14
2023-01-27T05:52:18.327Z,98774.64
2023-01-27T08:35:52.160Z,98796.11
2023-01-27T08:38:20.594Z,98797.11
2023-01-27T08:40:49.532Z,98795.82
2023-01-27T08:43:18.205Z,98791.40
2023-01-27T08:45:47.228Z,98790.93
2023-01-27T08:48:16.086Z,98787.38
2023-01-27T08:50:45.144Z,98786.17
2023-01-27T08:53:13.412Z,98785.16
2023-01-27T08:55:50.946Z,98776.01
2023-01-27T08:58:20.207Z,98780.29
2023-01-27T09:00:48.662Z,98780.30
2023-01-27T09:03:20.446Z,98788.02
2023-01-27T09:05:48.817Z,98784.45
2023-01-27T09:08:17.061Z,98784.04
2023-01-27T09:10:45.356Z,98781.23
2023-01-27T09:13:13.984Z,98784.76
2023-01-27T09:15:43.980Z,98785.20
2023-01-27T09:18:12.559Z,98792.83
2023-01-27T09:20:46.746Z,98788.92
2023-01-27T09:23:20.935Z,98788.49
2023-01-27T09:26:08.313Z,98792.60
2023-01-27T09:28:36.725Z,98789.42
2023-01-27T09:31:09.718Z,98790.23
2023-01-27T09:33:40.934Z,98787.97
2023-01-27T09:36:12.709Z,98786.92
2023-01-27T09:38:51.415Z,98782.01
2023-01-27T09:41:41.428Z,98784.75
2023-01-27T09:44:38.054Z,98783.10
2023-01-27T09:47:27.600Z,98779.80
2023-01-27T09:50:15.144Z,98777.97
2023-01-27T09:53:08.008Z,98786.14
2023-01-27T09:56:24.864Z,98789.75
2023-01-27T09:59:05.048Z,98789.41
2023-01-27T10:01:43.438Z,98788.31
2023-01-27T10:05:02.952Z,98786.72
2023-01-27T10:07:57.666Z,98779.73
2023-01-27T10:10:42.676Z,98778.83
2023-01-27T10:13:35.757Z,98777.20
2023-01-27T10:16:09.670Z,98777.34
2023-01-27T10:18:52.928Z,98774.63
2023-01-27T10:21:43.077Z,98772.27
2023-01-27T10:27:59.182Z,98777.34
2023-01-27T10:30:38.406Z,98773.63
2023-01-27T10:33:30.362Z,98767.46
2023-01-27T10:35:59.642Z,98765.58
2023-01-27T10:38:53.740Z,98760.68
2023-01-27T10:41:28.891Z,98765.02
2023-01-27T10:44:18.586Z,98766.31
2023-01-27T10:47:21.278Z,98760.31
2023-01-27T10:50:03.399Z,98750.67
2023-01-27T10:52:43.171Z,98749.96
2023-01-27T10:55:44.669Z,98746.52
2023-01-27T10:58:34.100Z,98744.67
2023-01-27T11:01:20.377Z,98741.23
2023-01-27T11:03:59.738Z,98739.02
2023-01-27T11:06:59.755Z,98735.04
2023-01-27T11:09:30.910Z,98730.94
2023-01-27T11:12:02.959Z,98725.29
2023-01-27T11:14:52.178Z,98721.90
2023-01-27T11:17:32.606Z,98717.73
2023-01-27T11:20:38.562Z,98715.63
2023-01-27T11:23:10.910Z,98708.98
2023-01-27T11:26:24.292Z,98709.26
2023-01-27T11:29:06.554Z,98705.85
2023-01-27T11:31:39.753Z,98703.60
2023-01-27T11:34:34.087Z,98703.43
2023-01-27T11:37:19.214Z,98697.95
2023-01-27T11:39:47.675Z,98692.14
2023-01-27T11:42:16.654Z,98689.59
2023-01-27T11:44:45.065Z,98686.02
2023-01-27T11:47:29.303Z,98684.78
2023-01-27T11:49:57.926Z,98681.38
2023-01-27T11:52:29.291Z,98677.13
2023-01-27T11:58:52.513Z,98684.00
2023-01-27T12:01:29.761Z,98693.87
2023-01-27T12:04:17.754Z,98690.39
2023-01-27T12:06:50.640Z,98691.66
2023-01-27T12:09:41.077Z,98686.67
2023-01-27T12:12:15.744Z,98683.27
2023-01-27T12:14:55.257Z,98679.59
2023-01-27T12:17:38.787Z,98678.52
2023-01-27T12:20:32.814Z,98681.80
2023-01-27T12:23:07.399Z,98681.08
2023-01-27T12:25:48.977Z,98681.79
2023-01-27T12:28:24.212Z,98678.02
2023-01-27T12:31:16.682Z,98675.38
2023-01-27T12:33:57.525Z,98672.13
2023-01-27T12:37:08.465Z,98667.09
2023-01-27T12:39:58.480Z,98672.01
2023-01-27T12:42:54.632Z,98673.13
2023-01-27T12:45:27.308Z,98677.08
2023-01-27T12:47:57.717Z,98679.42
2023-01-27T12:50:28.693Z,98678.01
2023-01-27T12:53:05.008Z,98679.69
2023-01-27T12:55:35.581Z,98682.44
2023-01-27T12:58:04.060Z,98685.25
2023-01-27T13:00:35.335Z,98690.38
2023-01-27T13:03:07.455Z,98693.05
2023-01-27T13:05:38.046Z,98696.30
2023-01-27T13:11:02.914Z,98697.31
2023-01-27T13:13:37.273Z,98694.09
2023-01-27T13:16:15.708Z,98691.34
2023-01-27T13:18:43.980Z,98689.89
2023-01-27T13:21:16.813Z,98692.25
2023-01-27T13:23:46.247Z,98698.36
2023-01-27T13:26:37.547Z,98699.55
2023-01-27T13:29:27.662Z,98696.57
2023-01-27T13:31:59.075Z,98701.28
2023-01-27T13:34:47.440Z,98700.54
2023-01-27T13:40:18.498Z,98703.55
2023-01-27T13:43:03.192Z,98703.89
2023-01-27T13:45:45.699Z,98712.83
2023-01-27T13:48:40.452Z,98710.36
2023-01-27T13:51:10.876Z,98706.17
2023-01-27T13:53:39.452Z,98706.00
2023-01-27T13:56:18.491Z,98704.51
2023-01-27T13:58:55.973Z,98702.91
2023-01-27T14:01:26.018Z,98699.30
2023-01-27T14:04:13.141Z,98697.83
2023-01-27T14:07:06.390Z,98698.70
2023-01-27T14:09:41.005Z,98695.18
2023-01-27T14:12:14.643Z,98697.73
2023-01-27T14:15:21.133Z,98692.94
2023-01-27T14:18:21.230Z,98690.89
2023-01-27T14:21:39.262Z,98685.98
2023-01-27T14:24:24.955Z,98686.92
2023-01-27T14:27:13.544Z,98685.89
2023-01-27T14:29:51.217Z,98684.98
2023-01-27T14:32:26.626Z,98678.02
2023-01-27T14:35:10.075Z,98668.48
2023-01-27T14:38:07.697Z,98667.34
2023-01-27T14:40:58.408Z,98668.17
2023-01-27T14:43:34.758Z,98672.85
2023-01-27T14:46:19.165Z,98671.05
2023-01-27T14:49:19.999Z,98669.92
2023-01-27T14:52:30.201Z,98665.63
2023-01-27T14:55:04.474Z,98667.36
2023-01-27T14:57:48.191Z,98669.58
2023-01-27T15:00:49.544Z,98663.91
2023-01-27T15:03:52.306Z,98669.42
2023-01-27T15:06:35.595Z,98673.19
2023-01-27T15:09:07.000Z,98673.48
2023-01-27T15:11:54.245Z,98676.48
2023-01-27T15:14:34.596Z,98672.00
2023-01-27T15:17:37.583Z,98667.41
2023-01-27T15:20:35.122Z,98662.45
2023-01-27T15:23:20.582Z,98662.88
2023-01-27T15:25:54.768Z,98660.80
2023-01-27T15:28:27.289Z,98654.87
2023-01-27T15:31:11.799Z,98659.17
2023-01-27T15:34:05.133Z,98663.33
2023-01-27T15:36:37.472Z,98658.19
2023-01-27T15:39:09.238Z,98655.95
2023-01-27T15:45:00.831Z,98667.61
2023-01-27T15:47:32.095Z,98672.71
2023-01-27T15:50:19.902Z,98673.10
2023-01-27T15:52:48.227Z,98672.89
2023-01-27T15:55:33.720Z,98674.44
2023-01-27T15:58:05.984Z,98676.04
2023-01-27T16:00:48.847Z,98676.64
2023-01-27T16:03:36.110Z,98679.52
2023-01-27T16:06:30.802Z,98678.33
2023-01-27T16:09:06.684Z,98687.73
2023-01-27T16:11:35.029Z,98689.09
2023-01-27T16:14:25.348Z,98696.29
2023-01-27T16:16:54.702Z,98698.34
2023-01-27T16:19:25.969Z,98702.39
2023-01-27T16:22:00.640Z,98703.21
2023-01-27T16:24:29.652Z,98700.83
2023-01-27T16:27:19.102Z,98704.23
2023-01-27T16:29:49.883Z,98702.98
2023-01-27T16:38:02.956Z,98702.77
2023-01-27T16:40:31.335Z,98700.16
2023-01-27T16:43:18.552Z,98697.16
2023-01-27T16:45:48.279Z,98697.10
2023-01-27T16:48:36.820Z,98704.50
2023-01-27T16:51:21.022Z,98700.98
2023-01-27T16:53:50.588Z,98708.81
2023-01-27T16:56:27.356Z,98709.54
2023-01-27T17:01:59.932Z,98712.64
2023-01-27T17:04:29.340Z,98713.60
2023-01-27T17:07:13.462Z,98720.13
2023-01-27T17:09:51.905Z,98725.36
2023-01-27T17:12:33.263Z,98728.19
2023-01-27T17:15:09.571Z,98725.98
2023-01-27T17:17:39.791Z,98728.11
2023-01-27T17:20:09.689Z,98727.04
2023-01-27T17:22:39.901Z,98727.66
2023-01-27T17:25:15.924Z,98729.08
2023-01-27T17:27:45.077Z,98725.90
2023-01-27T17:30:24.392Z,98725.27
2023-01-27T17:35:43.608Z,98722.61
2023-01-27T17:38:21.377Z,98729.59
2023-01-27T17:40:53.851Z,98728.48
2023-01-27T17:43:29.325Z,98728.23
2023-01-27T17:46:36.961Z,98721.95
2023-01-27T17:49:16.048Z,98724.59
2023-01-27T17:51:46.653Z,98723.58
2023-01-27T17:54:30.491Z,98728.34
2023-01-27T17:57:22.930Z,98732.73
2023-01-27T18:00:01.136Z,98737.86
2023-01-27T18:02:50.881Z,98735.54
2023-01-27T18:05:21.262Z,98736.94
2023-01-27T18:07:49.426Z,98742.86
2023-01-27T18:10:39.984Z,98748.11
2023-01-27T18:13:21.221Z,98751.69
2023-01-27T18:15:58.055Z,98751.85
2023-01-27T18:18:32.313Z,98746.59
2023-01-27T18:21:04.082Z,98750.69
2023-01-27T18:23:46.760Z,98748.70
2023-01-27T18:26:27.955Z,98750.38
2023-01-27T18:29:03.900Z,98753.29
2023-01-27T18:31:37.438Z,98751.80
2023-01-27T18:34:05.753Z,98755.14
2023-01-27T18:36:35.882Z,98755.80
2023-01-27T18:42:31.122Z,98750.79
2023-01-27T18:44:59.216Z,98746.03
2023-01-27T18:47:29.367Z,98740.11
2023-01-27T18:50:27.996Z,98738.48
2023-01-27T18:52:56.065Z,98737.05
2023-01-27T18:55:26.559Z,98736.45
2023-01-27T18:57:56.850Z,98733.54
2023-01-27T19:00:53.703Z,98732.60
2023-01-27T19:03:26.823Z,98729.55
2023-01-27T19:05:55.228Z,98735.85
2023-01-27T19:08:26.248Z,98740.40
2023-01-27T19:13:44.538Z,98742.33
2023-01-27T19:16:14.570Z,98743.80
2023-01-27T19:18:42.741Z,98744.63
2023-01-27T19:21:15.418Z,98744.50
2023-01-27T19:23:45.059Z,98744.21
2023-01-27T19:29:03.835Z,98738.51
2023-01-27T19:31:32.219Z,98736.57
2023-01-27T19:34:00.717Z,98733.17
2023-01-27T19:36:37.004Z,98735.38
2023-01-27T19:39:08.287Z,98739.89
2023-01-27T19:41:36.722Z,98744.08
2023-01-27T19:44:05.451Z,98737.95
2023-01-27T19:46:34.968Z,98740.98
2023-01-27T19:49:03.197Z,98738.72
2023-01-27T19:51:32.584Z,98736.30
2023-01-27T19:54:05.699Z,98733.30
2023-01-27T19:56:34.435Z,98731.46
2023-01-27T19:59:02.626Z,98734.52
2023-01-27T20:01:34.238Z,98732.66
2023-01-27T20:04:02.604Z,98728.73
2023-01-27T20:06:31.323Z,98733.35
2023-01-27T20:09:00.014Z,98732.52
2023-01-27T20:14:19.115Z,98725.75
2023-01-27T20:16:47.491Z,98719.22
2023-01-27T20:19:16.479Z,98716.23
2023-01-27T20:21:45.899Z,98715.91
2023-01-27T20:24:18.317Z,98715.63
2023-01-27T20:26:46.843Z,98716.76
2023-01-27T20:29:15.801Z,98714.15
2023-01-27T20:31:45.350Z,98714.51
2023-01-27T20:34:16.687Z,98718.73
2023-01-27T20:36:46.224Z,98719.91
2023-01-27T20:39:14.558Z,98720.09
2023-01-27T20:49:27.747Z,98714.06
2023-01-27T20:51:57.017Z,98715.87
2023-01-27T20:54:25.349Z,98720.71
2023-01-27T20:56:53.721Z,98718.79
2023-01-27T20:59:21.935Z,98722.47
2023-01-27T21:01:50.355Z,98718.91
2023-01-27T21:04:21.808Z,98720.77
2023-01-27T21:06:50.031Z,98719.10
2023-01-27T21:09:18.568Z,98718.10
2023-01-27T21:11:46.881Z,98715.91
2023-01-27T21:14:15.926Z,98717.81
2023-01-27T21:16:44.243Z,98721.08
2023-01-27T21:19:12.811Z,98722.91
2023-01-27T21:21:41.608Z,98724.94
2023-01-27T21:24:10.366Z,98727.68
2023-01-27T21:26:38.545Z,98725.44
2023-01-27T21:29:06.821Z,98724.23
2023-01-27T21:31:52.731Z,98720.11
2023-01-27T21:34:21.942Z,98721.90
2023-01-27T21:36:50.190Z,98719.16
2023-01-27T21:39:18.536Z,98718.52
2023-01-27T21:41:52.898Z,98716.48
2023-01-27T21:44:49.220Z,98714.77
2023-01-27T21:47:18.509Z,98718.17
2023-01-27T21:50:03.035Z,98718.30
2023-01-27T21:52:35.333Z,98716.01
2023-01-27T21:55:05.046Z,98712.66
2023-01-27T21:57:33.730Z,98711.93
2023-01-27T22:00:02.731Z,98710.24
2023-01-27T22:02:41.454Z,98707.00
2023-01-27T22:05:10.792Z,98706.67
2023-01-27T22:07:40.679Z,98713.45
2023-01-27T22:10:27.398Z,98713.06
2023-01-27T22:12:59.744Z,98712.15
2023-01-27T22:15:33.955Z,98711.19
2023-01-27T22:18:02.844Z,98708.38
2023-01-27T22:20:31.854Z,98710.91
2023-01-27T22:23:00.114Z,98709.86
2023-01-27T22:25:29.832Z,98711.16
2023-01-27T22:27:58.219Z,98710.16
2023-01-27T22:30:26.407Z,98712.88
2023-01-27T22:32:54.828Z,98711.48
2023-01-27T22:35:24.099Z,98719.22
2023-01-27T22:37:55.436Z,98724.59
2023-01-27T22:40:24.487Z,98725.67
2023-01-27T22:42:52.928Z,98721.05
2023-01-27T22:45:21.145Z,98719.41
2023-01-27T22:47:50.037Z,98720.95
2023-01-27T22:50:19.230Z,98714.89
2023-01-27T22:52:47.507Z,98711.77
2023-01-27T22:55:16.047Z,98713.39
2023-01-27T22:57:45.311Z,98714.52
2023-01-27T23:00:14.280Z,98710.13
2023-01-27T23:02:42.437Z,98709.61
2023-01-27T23:05:15.633Z,98710.00
2023-01-27T23:07:44.309Z,98710.88
2023-01-27T23:10:14.876Z,98712.47
2023-01-27T23:12:43.463Z,98722.27
2023-01-27T23:15:12.325Z,98721.29
2023-01-27T23:17:41.120Z,98719.78
2023-01-27T23:20:10.606Z,98721.51
2023-01-27T23:22:39.817Z,98717.45
2023-01-27T23:25:12.027Z,98716.14
2023-01-27T23:27:41.391Z,98710.21
2023-01-27T23:30:11.106Z,98708.90
2023-01-27T23:32:40.431Z,98702.47
2023-01-27T23:35:09.643Z,98702.92
2023-01-27T23:37:37.975Z,98706.95
2023-01-27T23:40:07.874Z,98708.34
2023-01-27T23:42:36.309Z,98701.68
2023-01-27T23:45:05.255Z,98699.44
2023-01-27T23:47:33.713Z,98697.98
2023-01-27T23:50:02.025Z,98698.40
2023-01-27T23:52:31.709Z,98701.34
2023-01-27T23:55:00.248Z,98703.00
2023-01-27T23:57:28.584Z,98705.51
2023-01-27T23:59:56.937Z,98698.85
